Time;durP1;ratioP1;P1;durP2;ratioP2;P2;SDS_P1;SDS_P2;PMS_P1;PMS_P2;Temp;Humidity;BMP_temperature;BMP_pressure;BME280_temperature;BME280_humidity;BME280_pressure;Samples;Min_cycle;Max_cycle;Signal;HPM_P1;HPM_P2
2022/07/29 00:01:27;;;;;;;8.43;6.88;;;;;;;18.25;100.00;63887.78;5043892;28;20197;-75
2022/07/29 00:03:54;;;;;;;8.07;6.65;;;;;;;18.22;100.00;63886.72;5043544;28;20198;-75
2022/07/29 00:06:25;;;;;;;8.57;7.05;;;;;;;18.17;100.00;63874.28;5044183;28;20225;-75
2022/07/29 00:08:52;;;;;;;9.70;7.25;;;;;;;18.21;100.00;63883.63;5044675;28;20212;-75
2022/07/29 00:11:19;;;;;;;8.05;7.15;;;;;;;18.33;100.00;63896.13;5043997;28;20197;-76
2022/07/29 00:13:46;;;;;;;6.97;6.38;;;;;;;18.37;100.00;63897.19;5043921;28;20552;-75
2022/07/29 00:16:13;;;;;;;7.47;6.80;;;;;;;18.34;100.00;63894.56;5044411;28;20197;-75
2022/07/29 00:18:40;;;;;;;7.38;6.68;;;;;;;18.25;100.00;63887.28;5044260;28;20237;-75
2022/07/29 00:21:07;;;;;;;7.07;6.32;;;;;;;18.23;100.00;63887.75;5044315;28;20197;-75
2022/07/29 00:23:35;;;;;;;7.97;7.20;;;;;;;18.13;100.00;63874.75;5043587;28;20412;-76
2022/07/29 00:26:02;;;;;;;7.50;6.80;;;;;;;18.13;100.00;63872.72;5043537;28;20197;-75
2022/07/29 00:28:29;;;;;;;9.45;7.47;;;;;;;18.14;100.00;63878.91;5043758;28;20235;-76
2022/07/29 00:30:56;;;;;;;7.55;6.78;;;;;;;18.12;100.00;63871.66;5043693;28;20244;-76
2022/07/29 00:33:24;;;;;;;7.47;6.78;;;;;;;18.15;100.00;63877.34;5043984;28;20217;-78
2022/07/29 00:35:50;;;;;;;8.20;7.47;;;;;;;18.16;100.00;63872.72;5043976;28;20243;-75
2022/07/29 00:38:18;;;;;;;7.88;7.07;;;;;;;18.13;100.00;63874.75;5043673;28;20241;-76
2022/07/29 00:40:47;;;;;;;8.80;7.25;;;;;;;18.05;100.00;63866.94;5043498;28;20205;-76
2022/07/29 00:43:14;;;;;;;8.27;7.53;;;;;;;18.10;100.00;63871.66;5043497;28;20229;-75
2022/07/29 00:45:42;;;;;;;9.13;7.50;;;;;;;18.13;100.00;63877.34;5043612;28;20197;-75
2022/07/29 00:48:09;;;;;;;8.13;6.70;;;;;;;18.11;100.00;63875.78;5043223;28;20432;-75
2022/07/29 00:50:37;;;;;;;8.20;7.32;;;;;;;18.04;100.00;63863.34;5043582;28;20193;-76
2022/07/29 00:53:06;;;;;;;8.25;7.57;;;;;;;18.05;100.00;63858.72;5043243;28;20240;-75
2022/07/29 00:55:33;;;;;;;7.72;6.97;;;;;;;18.01;100.00;63859.69;5043469;28;20448;-76
2022/07/29 00:58:01;;;;;;;8.88;7.60;;;;;;;18.01;100.00;63860.22;5043102;28;20228;-75
2022/07/29 01:00:30;;;;;;;8.43;7.57;;;;;;;18.01;100.00;63862.78;5043278;28;20206;-76
2022/07/29 01:02:57;;;;;;;8.02;7.28;;;;;;;18.03;100.00;63859.72;5042710;28;20224;-76
2022/07/29 01:05:27;;;;;;;11.30;7.97;;;;;;;18.06;100.00;63867.47;5043329;28;20207;-76
2022/07/29 01:07:55;;;;;;;8.23;7.50;;;;;;;18.09;100.00;63870.59;5042947;28;20228;-76
2022/07/29 01:10:23;;;;;;;14.35;7.45;;;;;;;18.17;100.00;63879.44;5042955;28;20497;-75
2022/07/29 01:12:53;;;;;;;8.70;7.32;;;;;;;18.10;100.00;63872.16;5042664;28;20217;-75
2022/07/29 01:15:22;;;;;;;8.85;6.72;;;;;;;18.03;100.00;63864.88;5043132;28;20188;-76
2022/07/29 01:17:59;;;;;;;13.15;6.88;;;;;;;18.00;100.00;63858.66;5042855;28;20244;-75
2022/07/29 01:20:32;;;;;;;7.95;7.22;;;;;;;18.07;100.00;63869.03;5043160;28;20196;-74
2022/07/29 01:23:26;;;;;;;8.55;7.57;;;;;;;18.07;100.00;63868.50;5042903;28;20221;-75
2022/07/29 01:26:11;;;;;;;9.45;7.18;;;;;;;18.07;100.00;63869.03;5043102;28;20193;-76
2022/07/29 01:29:01;;;;;;;10.75;8.38;;;;;;;18.03;100.00;63864.88;5043056;28;20221;-75
2022/07/29 01:31:36;;;;;;;9.45;7.93;;;;;;;18.13;100.00;63877.88;5041331;28;20200;-75
2022/07/29 01:34:06;;;;;;;8.07;7.28;;;;;;;18.17;100.00;63876.88;5043388;28;20243;-75
2022/07/29 01:36:37;;;;;;;8.20;7.50;;;;;;;18.26;100.00;63888.31;5043320;28;20269;-75
2022/07/29 01:39:09;;;;;;;9.68;7.35;;;;;;;18.26;100.00;63885.72;5043449;28;20236;-75
2022/07/29 01:41:39;;;;;;;7.80;7.00;;;;;;;18.21;100.00;63877.94;5043008;28;20208;-75
2022/07/29 01:44:15;;;;;;;7.85;7.05;;;;;;;18.22;100.00;63881.56;5042756;28;20209;-76
2022/07/29 01:46:50;;;;;;;8.10;7.43;;;;;;;18.23;100.00;63882.59;5043277;28;20188;-75
2022/07/29 01:49:22;;;;;;;8.30;7.50;;;;;;;18.20;100.00;63882.59;5043451;28;20201;-75
2022/07/29 01:51:53;;;;;;;7.68;6.95;;;;;;;18.19;100.00;63878.44;5043574;28;20221;-75
2022/07/29 01:54:25;;;;;;;9.32;7.65;;;;;;;18.19;100.00;63886.16;5043093;28;20208;-75
2022/07/29 01:56:56;;;;;;;7.25;6.65;;;;;;;18.21;100.00;63883.63;5042762;28;20252;-75
2022/07/29 01:59:27;;;;;;;7.32;6.75;;;;;;;18.24;100.00;63886.75;5043289;28;20455;-75
2022/07/29 02:01:58;;;;;;;8.02;7.25;;;;;;;18.21;100.00;63877.94;5042723;28;20581;-75
2022/07/29 02:04:27;;;;;;;8.15;7.03;;;;;;;18.21;100.00;63883.63;5042999;28;20198;-76
2022/07/29 02:06:55;;;;;;;9.43;7.40;;;;;;;18.31;100.00;63893.50;5043526;28;20271;-76
2022/07/29 02:09:24;;;;;;;10.10;7.43;;;;;;;18.18;100.00;63877.41;5043665;28;20426;-76
2022/07/29 02:11:55;;;;;;;9.40;7.25;;;;;;;18.16;100.00;63875.31;5043203;28;20314;-75
2022/07/29 02:14:25;;;;;;;8.80;8.00;;;;;;;18.22;100.00;63884.16;5043100;28;20489;-76
2022/07/29 02:16:55;;;;;;;8.35;7.53;;;;;;;18.23;100.00;63887.75;5046574;28;20217;-76
2022/07/29 02:19:24;;;;;;;8.57;7.78;;;;;;;18.32;100.00;63895.09;5046412;28;20603;-75
2022/07/29 02:21:54;;;;;;;9.38;8.57;;;;;;;18.32;100.00;63895.09;5046205;28;20446;-75
2022/07/29 02:24:23;;;;;;;9.52;7.85;;;;;;;18.29;100.00;63891.94;5045493;28;20193;-77
2022/07/29 02:26:51;;;;;;;7.72;6.85;;;;;;;18.27;100.00;63886.78;5045403;28;20561;-75
2022/07/29 02:29:20;;;;;;;7.85;7.10;;;;;;;18.31;100.00;63891.47;5046068;28;20197;-76
2022/07/29 02:31:50;;;;;;;7.10;6.50;;;;;;;18.38;100.00;63898.22;5045271;28;20213;-76
2022/07/29 02:34:19;;;;;;;9.32;6.97;;;;;;;18.46;100.00;63911.75;5046200;28;20205;-76
2022/07/29 02:36:46;;;;;;;6.50;6.00;;;;;;;18.55;100.00;63915.44;5045608;28;20223;-76
2022/07/29 02:39:16;;;;;;;7.75;7.15;;;;;;;18.61;100.00;63922.22;5045465;28;20237;-76
2022/07/29 02:41:45;;;;;;;7.70;6.05;;;;;;;18.69;100.00;63933.13;5045104;28;20271;-76
2022/07/29 02:44:15;;;;;;;6.57;6.07;;;;;;;18.76;100.00;63935.28;5045582;28;20279;-75
2022/07/29 02:46:51;;;;;;;8.50;6.18;;;;;;;18.76;100.00;63934.75;5045445;28;20251;-75
2022/07/29 02:49:28;;;;;;;6.35;5.95;;;;;;;18.71;100.00;63935.22;5045604;28;20217;-75
2022/07/29 02:51:59;;;;;;;6.95;6.35;;;;;;;18.71;100.00;63934.69;5045178;28;20492;-76
2022/07/29 02:54:32;;;;;;;7.30;6.40;;;;;;;18.80;100.00;63941.50;5045160;28;20197;-76
2022/07/29 02:57:03;;;;;;;7.00;6.50;;;;;;;18.70;100.00;63934.19;5045434;28;20231;-75
2022/07/29 02:59:35;;;;;;;6.07;5.35;;;;;;;18.78;100.00;63945.09;5045420;28;20225;-75
2022/07/29 03:02:05;;;;;;;8.45;5.75;;;;;;;18.78;100.00;63942.53;5045377;28;20217;-75
2022/07/29 03:04:35;;;;;;;6.65;6.05;;;;;;;18.80;100.00;63941.50;5046842;28;20474;-76
2022/07/29 03:07:03;;;;;;;7.63;5.97;;;;;;;18.74;100.00;63940.94;5046574;28;20251;-76
2022/07/29 03:09:30;;;;;;;7.40;6.68;;;;;;;18.64;100.00;63930.50;5045451;28;20197;-76
2022/07/29 03:11:57;;;;;;;7.80;7.03;;;;;;;18.62;100.00;63920.16;5045212;28;20395;-75
2022/07/29 03:14:25;;;;;;;9.50;6.68;;;;;;;18.54;100.00;63920.09;5045042;28;20201;-75
2022/07/29 03:16:52;;;;;;;6.35;5.85;;;;;;;18.48;100.00;63903.00;5045184;28;20288;-75
2022/07/29 03:19:21;;;;;;;8.60;6.53;;;;;;;18.50;100.00;63910.75;5045331;28;20233;-75
2022/07/29 03:21:48;;;;;;;7.10;6.50;;;;;;;18.47;100.00;63909.69;5045022;28;20221;-76
2022/07/29 03:24:29;;;;;;;7.28;6.60;;;;;;;18.37;100.00;63905.47;5044991;28;20269;-75
2022/07/29 03:26:57;;;;;;;7.35;6.63;;;;;;;18.37;100.00;63897.72;5044717;28;20433;-76
2022/07/29 03:29:25;;;;;;;6.80;6.07;;;;;;;18.32;100.00;63895.09;5044854;28;20498;-75
2022/07/29 03:31:52;;;;;;;9.05;6.72;;;;;;;18.32;100.00;63897.16;5044418;28;20213;-76
2022/07/29 03:34:19;;;;;;;8.05;6.75;;;;;;;18.29;100.00;63886.78;5044789;28;20205;-76
2022/07/29 03:36:47;;;;;;;8.18;6.03;;;;;;;18.24;100.00;63881.09;5044745;28;20198;-76
2022/07/29 03:39:18;;;;;;;8.02;7.03;;;;;;;18.17;100.00;63881.53;5044612;28;20379;-76
2022/07/29 03:41:47;;;;;;;6.68;6.13;;;;;;;18.08;100.00;63870.09;5044478;28;20193;-77
2022/07/29 03:44:16;;;;;;;7.82;6.53;;;;;;;18.12;100.00;63871.66;5044181;28;20563;-75
2022/07/29 03:46:45;;;;;;;7.03;6.32;;;;;;;18.14;100.00;63878.91;5044186;28;20499;-75
2022/07/29 03:49:15;;;;;;;6.93;6.38;;;;;;;18.15;100.00;63877.34;5044616;28;20197;-76
2022/07/29 03:51:43;;;;;;;9.13;7.65;;;;;;;18.17;100.00;63879.44;5044473;28;20572;-76
2022/07/29 03:54:12;;;;;;;7.63;6.97;;;;;;;18.24;100.00;63884.16;5044501;28;20200;-76
2022/07/29 03:56:42;;;;;;;10.35;8.07;;;;;;;18.21;100.00;63880.50;5044296;28;20197;-76
2022/07/29 03:59:12;;;;;;;8.15;7.38;;;;;;;18.29;100.00;63889.38;5044284;28;20221;-75
2022/07/29 04:01:40;;;;;;;7.68;6.70;;;;;;;18.35;100.00;63895.63;5044142;28;20471;-76
2022/07/29 04:04:07;;;;;;;8.43;6.25;;;;;;;18.36;100.00;63894.09;5044322;28;20320;-75
2022/07/29 04:06:39;;;;;;;7.88;6.30;;;;;;;18.44;100.00;63904.50;5044237;28;20510;-76
2022/07/29 04:09:06;;;;;;;7.82;6.07;;;;;;;18.54;100.00;63914.94;5043380;28;20494;-76
2022/07/29 04:11:35;;;;;;;5.72;5.22;;;;;;;18.67;100.00;63930.53;5043160;28;20243;-77
2022/07/29 04:14:02;;;;;;;6.45;5.80;;;;;;;18.55;100.00;63913.38;5043691;28;20426;-76
2022/07/29 04:16:28;;;;;;;7.53;6.82;;;;;;;18.55;100.00;63915.97;5043554;28;20426;-76
2022/07/29 04:18:55;;;;;;;7.95;6.25;;;;;;;18.60;100.00;63921.19;5043865;28;20240;-76
2022/07/29 04:21:22;;;;;;;6.97;6.38;;;;;;;18.63;100.00;63926.88;5043566;28;20520;-77
2022/07/29 04:23:50;;;;;;;8.93;7.07;;;;;;;18.77;100.00;63938.38;5043786;28;20271;-76
2022/07/29 04:26:17;;;;;;;7.30;6.55;;;;;;;18.86;100.00;63947.75;5043341;28;20247;-75
2022/07/29 04:28:46;;;;;;;9.00;7.00;;;;;;;19.07;100.00;63967.59;5043712;28;20214;-76
2022/07/29 04:31:13;;;;;;;7.35;6.65;;;;;;;19.30;100.00;63996.22;5043798;28;20264;-77
2022/07/29 04:33:41;;;;;;;8.48;6.38;;;;;;;19.45;100.00;64009.28;5043805;28;20438;-76
2022/07/29 04:36:07;;;;;;;7.85;6.88;;;;;;;19.56;100.00;64025.94;5043499;28;20251;-76
2022/07/29 04:38:34;;;;;;;10.35;6.90;;;;;;;19.57;100.00;64026.47;5042637;28;20242;-76
2022/07/29 04:41:01;;;;;;;7.13;5.60;;;;;;;19.50;100.00;64017.09;5043192;28;20482;-76
2022/07/29 04:43:28;;;;;;;9.63;6.95;;;;;;;19.54;100.00;64021.78;5043501;28;20315;-76
2022/07/29 04:45:56;;;;;;;7.40;6.70;;;;;;;19.64;100.00;64029.09;5043459;28;20224;-77
2022/07/29 04:48:23;;;;;;;10.30;6.22;;;;;;;19.72;100.00;64032.28;5043364;28;20233;-76
2022/07/29 04:50:52;;;;;;;10.32;6.13;;;;;;;20.01;100.00;64067.72;5043119;28;20197;-76
2022/07/29 04:53:19;;;;;;;6.97;5.32;;;;;;;20.22;100.00;64092.22;5043185;28;20579;-76
2022/07/29 04:55:46;;;;;;;7.40;4.53;;;;;;;20.35;100.00;64103.22;5042985;28;20197;-77
2022/07/29 04:58:13;;;;;;;3.88;3.67;;;;;;;20.55;100.00;64126.66;5042824;28;20244;-76
2022/07/29 05:00:40;;;;;;;4.15;3.80;;;;;;;20.63;100.00;64132.44;5043509;28;20194;-76
2022/07/29 05:03:08;;;;;;;3.95;3.67;;;;;;;20.75;100.00;64141.31;5042936;28;20260;-76
2022/07/29 05:05:35;;;;;;;4.10;3.90;;;;;;;20.80;100.00;64152.25;5043536;28;20197;-76
2022/07/29 05:08:02;;;;;;;4.65;4.20;;;;;;;20.97;100.00;64172.56;5043229;28;20228;-76
2022/07/29 05:10:29;;;;;;;7.18;3.80;;;;;;;21.04;100.00;64177.31;5043526;28;20209;-75
2022/07/29 05:12:56;;;;;;;5.00;4.22;;;;;;;21.16;100.00;64184.66;5043298;28;20251;-77
2022/07/29 05:15:23;;;;;;;5.25;4.85;;;;;;;21.01;100.00;64174.19;5042763;28;20197;-77
2022/07/29 05:17:50;;;;;;;5.63;5.22;;;;;;;21.24;100.00;64195.09;5043493;28;20426;-76
2022/07/29 05:20:19;;;;;;;6.57;5.55;;;;;;;20.94;100.00;64166.34;5043214;28;20275;-76
2022/07/29 05:22:46;;;;;;;6.40;5.82;;;;;;;20.74;100.00;64148.56;5043232;28;20740;-77
2022/07/29 05:25:13;;;;;;;6.40;5.90;;;;;;;20.68;100.00;64137.66;5043193;28;20205;-78
2022/07/29 05:27:40;;;;;;;7.18;5.97;;;;;;;20.82;100.00;64151.22;5043034;28;20209;-77
2022/07/29 05:30:08;;;;;;;6.22;5.45;;;;;;;20.74;100.00;64145.47;5043108;28;20216;-76
2022/07/29 05:32:35;;;;;;;6.60;5.68;;;;;;;20.49;100.00;64117.81;5043985;28;20235;-76
2022/07/29 05:35:02;;;;;;;6.00;5.57;;;;;;;20.83;100.00;64155.38;5043836;28;20448;-76
2022/07/29 05:37:30;;;;;;;10.25;6.05;;;;;;;20.92;100.00;64161.66;5043680;28;20225;-76
2022/07/29 05:39:57;;;;;;;8.18;5.47;;;;;;;21.16;100.00;64191.91;5043218;28;20249;-76
2022/07/29 05:42:24;;;;;;;5.15;4.78;;;;;;;21.27;100.00;64203.41;5043650;28;20529;-76
2022/07/29 05:44:52;;;;;;;6.38;5.93;;;;;;;21.26;100.00;64199.78;5043697;28;20221;-76
2022/07/29 05:47:19;;;;;;;5.15;4.80;;;;;;;21.42;100.00;64217.00;5043089;28;20236;-78
2022/07/29 05:49:46;;;;;;;6.50;4.90;;;;;;;21.72;100.00;64248.34;5045594;28;20201;-77
2022/07/29 05:52:13;;;;;;;5.95;5.38;;;;;;;21.81;100.00;64256.72;5046615;28;20210;-77
2022/07/29 05:54:42;;;;;;;5.20;4.90;;;;;;;21.88;100.00;64266.63;5047441;28;20198;-77
2022/07/29 05:57:09;;;;;;;6.57;5.10;;;;;;;22.10;99.93;64287.56;5046262;28;20218;-76
2022/07/29 05:59:37;;;;;;;6.57;5.00;;;;;;;22.16;100.00;64293.81;5046681;28;20245;-77
2022/07/29 06:02:05;;;;;;;6.43;4.60;;;;;;;22.41;99.47;64314.78;5046746;28;20237;-77
2022/07/29 06:04:32;;;;;;;9.27;5.35;;;;;;;22.63;97.28;64345.56;5046705;28;20198;-76
2022/07/29 06:06:59;;;;;;;8.88;4.72;;;;;;;22.83;94.64;64363.38;5046630;28;20263;-76
2022/07/29 06:09:26;;;;;;;5.45;4.95;;;;;;;22.82;94.24;64357.13;5046966;28;20193;-77
2022/07/29 06:11:54;;;;;;;5.90;5.32;;;;;;;22.84;93.32;64362.34;5046581;28;20244;-76
2022/07/29 06:14:21;;;;;;;5.32;4.82;;;;;;;22.95;91.18;64375.41;5046769;28;20243;-77
2022/07/29 06:16:48;;;;;;;5.25;4.88;;;;;;;22.92;92.79;64374.84;5046638;28;20225;-77
2022/07/29 06:19:15;;;;;;;5.30;4.90;;;;;;;22.88;93.07;64373.78;5047086;28;20409;-76
2022/07/29 06:21:43;;;;;;;5.53;5.13;;;;;;;22.85;89.79;64365.97;5046858;28;20212;-78
2022/07/29 06:24:11;;;;;;;7.75;5.28;;;;;;;22.83;94.08;64363.38;5047032;28;20205;-77
2022/07/29 06:26:39;;;;;;;5.63;5.13;;;;;;;22.76;94.34;64353.97;5046778;28;20371;-77
2022/07/29 06:29:07;;;;;;;6.07;5.22;;;;;;;23.04;91.82;64387.91;5046585;28;20513;-77
2022/07/29 06:31:34;;;;;;;9.20;5.88;;;;;;;22.92;88.12;64372.25;5046685;28;20264;-75
2022/07/29 06:34:01;;;;;;;6.20;5.57;;;;;;;22.93;93.21;64373.81;5046363;28;20205;-77
2022/07/29 06:36:28;;;;;;;6.38;5.88;;;;;;;23.21;91.68;64405.19;5045992;28;20557;-77
2022/07/29 06:38:55;;;;;;;8.05;5.72;;;;;;;23.28;90.14;64412.53;5046609;28;20248;-77
2022/07/29 06:41:22;;;;;;;8.93;5.53;;;;;;;23.21;90.01;64400.50;5046203;28;20225;-77
2022/07/29 06:43:51;;;;;;;6.10;5.60;;;;;;;23.36;91.91;64418.28;5046467;28;20239;-78
2022/07/29 06:46:21;;;;;;;6.35;5.75;;;;;;;23.71;91.70;64457.53;5046537;28;20522;-78
2022/07/29 06:48:48;;;;;;;6.10;5.18;;;;;;;23.87;89.97;64472.19;5046399;28;20221;-77
2022/07/29 06:51:16;;;;;;;7.10;6.45;;;;;;;24.02;88.57;64484.78;5046507;28;20295;-78
2022/07/29 06:53:43;;;;;;;6.50;5.55;;;;;;;24.23;86.36;64506.75;5046892;28;20509;-77
2022/07/29 06:56:12;;;;;;;5.95;5.22;;;;;;;24.36;85.09;64520.38;5046256;28;20498;-78
2022/07/29 06:58:39;;;;;;;5.47;5.07;;;;;;;24.38;82.83;64527.13;5046017;28;20217;-78
2022/07/29 07:01:07;;;;;;;6.88;6.28;;;;;;;24.36;83.86;64520.38;5045674;28;20229;-78
2022/07/29 07:03:35;;;;;;;6.47;5.35;;;;;;;24.56;82.65;64543.38;5046589;28;20217;-78
2022/07/29 07:06:03;;;;;;;9.25;5.07;;;;;;;24.59;82.31;64543.94;5046522;28;20193;-77
2022/07/29 07:08:30;;;;;;;5.75;5.25;;;;;;;24.69;83.73;64557.00;5045948;28;20474;-77
2022/07/29 07:10:57;;;;;;;5.75;4.88;;;;;;;24.78;81.70;64566.97;5046213;28;20265;-77
2022/07/29 07:13:24;;;;;;;5.35;5.03;;;;;;;24.90;80.18;64576.41;5046724;28;20256;-77
2022/07/29 07:15:51;;;;;;;5.20;4.90;;;;;;;25.06;79.89;64593.69;5046801;28;20198;-77
2022/07/29 07:18:19;;;;;;;8.35;5.85;;;;;;;25.22;78.04;64609.38;5046289;28;20213;-77
2022/07/29 07:20:47;;;;;;;5.95;5.55;;;;;;;25.28;76.81;64616.22;5046289;28;20228;-77
2022/07/29 07:23:15;;;;;;;5.72;5.20;;;;;;;25.36;75.60;64629.81;5046852;28;20252;-77
2022/07/29 07:25:42;;;;;;;5.88;5.38;;;;;;;25.21;74.61;64611.50;5046261;28;20196;-78
2022/07/29 07:28:09;;;;;;;5.40;5.00;;;;;;;25.29;76.87;64619.34;5046421;28;20206;-78
2022/07/29 07:30:36;;;;;;;5.25;4.43;;;;;;;25.46;74.89;64634.56;5045588;28;20224;-78
2022/07/29 07:33:04;;;;;;;4.78;4.38;;;;;;;25.57;73.95;64641.41;5045442;28;20214;-77
2022/07/29 07:35:31;;;;;;;4.53;4.20;;;;;;;25.66;68.54;64658.13;5045876;28;20502;-77
2022/07/29 07:38:00;;;;;;;4.95;4.45;;;;;;;25.73;70.37;64668.06;5045899;28;20209;-77
2022/07/29 07:40:27;;;;;;;7.40;4.75;;;;;;;25.91;71.23;64684.84;5045690;28;20297;-78
2022/07/29 07:42:54;;;;;;;5.00;4.70;;;;;;;25.90;72.26;64680.66;5045836;28;20229;-77
2022/07/29 07:45:21;;;;;;;4.82;4.50;;;;;;;25.73;68.66;64665.97;5045194;28;20255;-78
2022/07/29 07:47:48;;;;;;;6.63;4.45;;;;;;;25.90;70.37;64680.66;5045414;28;20244;-77
2022/07/29 07:50:15;;;;;;;4.05;3.85;;;;;;;25.86;66.87;64679.63;5045964;28;20197;-78
2022/07/29 07:52:49;;;;;;;7.28;4.15;;;;;;;25.82;66.82;64672.28;5045795;28;20228;-78
2022/07/29 07:55:18;;;;;;;4.63;3.88;;;;;;;25.78;69.24;64668.09;5045333;28;20196;-78
2022/07/29 07:57:45;;;;;;;6.75;4.47;;;;;;;26.04;67.14;64693.25;5045189;28;20442;-78
2022/07/29 08:00:13;;;;;;;4.22;3.83;;;;;;;26.07;64.67;64706.88;5044846;28;20571;-77
2022/07/29 08:02:42;;;;;;;4.65;3.80;;;;;;;26.00;61.61;64693.75;5044601;28;20216;-77
2022/07/29 08:05:11;;;;;;;4.72;4.43;;;;;;;26.05;63.98;64699.53;5045377;28;20193;-77
2022/07/29 08:07:38;;;;;;;5.10;3.97;;;;;;;26.03;63.79;64699.53;5045206;28;20263;-77
2022/07/29 08:10:06;;;;;;;4.05;3.75;;;;;;;26.19;62.94;64716.84;5045456;28;20197;-77
2022/07/29 08:12:34;;;;;;;4.20;3.95;;;;;;;26.21;62.87;64718.91;5043792;28;20271;-78
2022/07/29 08:15:01;;;;;;;4.07;3.78;;;;;;;26.43;61.87;64743.56;5044842;28;20200;-78
2022/07/29 08:17:28;;;;;;;5.57;3.72;;;;;;;26.50;65.77;64746.19;5045084;28;20213;-78
2022/07/29 08:19:55;;;;;;;4.00;3.80;;;;;;;26.59;61.25;64762.94;5045447;28;20232;-78
2022/07/29 08:22:22;;;;;;;4.20;3.85;;;;;;;26.46;61.11;64741.47;5045435;28;20221;-78
2022/07/29 08:24:54;;;;;;;4.70;3.88;;;;;;;26.60;61.85;64756.69;5045836;28;20257;-78
2022/07/29 08:27:21;;;;;;;4.68;3.60;;;;;;;26.55;60.27;64751.44;5045269;28;20232;-78
2022/07/29 08:29:50;;;;;;;4.13;3.83;;;;;;;26.35;59.80;64729.94;5045240;28;20205;-77
2022/07/29 08:32:17;;;;;;;3.80;3.50;;;;;;;26.42;59.17;64739.91;5044812;28;20244;-78
2022/07/29 08:34:45;;;;;;;4.03;3.65;;;;;;;26.59;58.00;64755.66;5045226;28;20205;-78
2022/07/29 08:37:13;;;;;;;4.47;4.03;;;;;;;26.60;55.54;64756.69;5045282;28;20446;-78
2022/07/29 08:39:40;;;;;;;4.03;3.83;;;;;;;26.75;55.60;64774.53;5045311;28;20521;-77
2022/07/29 08:42:07;;;;;;;4.38;3.97;;;;;;;27.02;58.30;64797.63;5044982;28;20252;-76
2022/07/29 08:44:35;;;;;;;4.07;3.65;;;;;;;27.04;53.99;64799.72;5044931;28;20251;-77
2022/07/29 08:47:04;;;;;;;6.10;3.60;;;;;;;27.23;54.96;64822.25;5044970;28;20221;-77
2022/07/29 08:49:31;;;;;;;3.92;3.45;;;;;;;27.47;54.32;64850.09;5045288;28;20447;-78
2022/07/29 08:52:00;;;;;;;3.97;3.67;;;;;;;27.42;52.79;64839.06;5044737;28;20445;-78
2022/07/29 08:54:29;;;;;;;4.72;4.35;;;;;;;27.47;54.24;64847.47;5045397;28;20203;-78
2022/07/29 08:56:57;;;;;;;3.75;3.47;;;;;;;27.67;54.90;64868.44;5045540;28;20600;-78
2022/07/29 08:59:27;;;;;;;4.10;3.65;;;;;;;28.06;53.73;64911.50;5045758;28;20193;-79
2022/07/29 09:01:55;;;;;;;4.18;3.97;;;;;;;28.17;49.79;64915.19;5045991;28;20244;-79
2022/07/29 09:04:28;;;;;;;3.78;3.58;;;;;;;28.31;49.50;64935.66;5046218;28;20263;-79
2022/07/29 09:06:57;;;;;;;4.47;4.03;;;;;;;28.58;51.86;64962.97;5045905;28;20488;-79
2022/07/29 09:09:24;;;;;;;4.28;3.95;;;;;;;28.93;48.95;65004.97;5046053;28;20212;-78
2022/07/29 09:11:53;;;;;;;3.58;3.38;;;;;;;28.43;46.73;64947.72;5045241;28;20221;-79
2022/07/29 09:14:19;;;;;;;5.45;4.38;;;;;;;28.70;49.44;64970.34;5045722;28;20202;-80
2022/07/29 09:16:57;;;;;;;4.15;3.95;;;;;;;29.11;50.71;65024.41;5045234;28;20602;-77
2022/07/29 09:19:28;;;;;;;4.18;3.80;;;;;;;29.48;48.75;65054.91;5044867;28;20196;-78
2022/07/29 09:21:59;;;;;;;4.75;3.80;;;;;;;29.06;44.94;65011.28;5044701;28;20496;-78
2022/07/29 09:24:28;;;;;;;5.47;3.80;;;;;;;28.40;47.93;64945.09;5046708;28;20209;-79
2022/07/29 09:26:55;;;;;;;4.25;4.05;;;;;;;27.95;49.50;64897.84;5048910;28;20570;-78
2022/07/29 09:29:24;;;;;;;4.03;3.72;;;;;;;27.98;50.67;64901.00;5049156;28;20204;-78
2022/07/29 09:31:53;;;;;;;5.25;4.82;;;;;;;28.32;51.73;64936.16;5049108;28;20221;-79
2022/07/29 09:34:24;;;;;;;4.13;3.92;;;;;;;28.41;46.63;64946.16;5049737;28;20224;-79
2022/07/29 09:36:54;;;;;;;4.00;3.80;;;;;;;28.41;48.24;64950.84;5048540;28;20243;-78
2022/07/29 09:39:29;;;;;;;4.95;4.55;;;;;;;28.42;48.44;64949.81;5047974;28;20239;-78
2022/07/29 09:41:58;;;;;;;4.82;4.40;;;;;;;28.44;49.95;64949.28;5049320;28;20236;-78
2022/07/29 09:44:25;;;;;;;4.97;4.57;;;;;;;28.63;51.01;64971.34;5050858;28;20198;-78
2022/07/29 09:47:05;;;;;;;5.15;4.75;;;;;;;28.56;49.63;64956.13;5048946;28;20225;-79
2022/07/29 09:49:32;;;;;;;4.70;4.40;;;;;;;28.64;49.33;64967.19;5048112;28;20212;-78
2022/07/29 09:52:10;;;;;;;5.18;4.78;;;;;;;28.88;49.93;64995.00;5048826;28;20213;-77
2022/07/29 09:54:38;;;;;;;4.57;4.28;;;;;;;29.04;47.56;65011.81;5050157;28;20490;-77
2022/07/29 09:57:06;;;;;;;4.55;4.28;;;;;;;29.33;48.65;65041.78;5048953;28;20214;-79
2022/07/29 09:59:38;;;;;;;4.65;4.35;;;;;;;29.80;48.90;65093.81;5049354;28;20236;-78
2022/07/29 10:05:44;;;;;;;4.15;3.85;;;;;;;30.46;46.29;65160.59;5053992;28;20208;-79
2022/07/29 10:08:13;;;;;;;5.30;4.90;;;;;;;30.93;45.99;65209.50;5050459;28;20475;-79
2022/07/29 10:10:41;;;;;;;4.95;4.40;;;;;;;31.29;44.67;65244.22;5049086;28;20201;-79
2022/07/29 10:13:10;;;;;;;4.63;4.30;;;;;;;31.64;43.60;65286.88;5048600;28;20222;-79
2022/07/29 10:15:40;;;;;;;5.93;4.60;;;;;;;31.84;43.04;65302.09;5048585;28;20211;-78
2022/07/29 10:18:08;;;;;;;5.18;4.80;;;;;;;32.06;43.30;65327.94;5048522;28;20293;-79
2022/07/29 10:20:36;;;;;;;5.00;4.60;;;;;;;32.09;41.95;65327.91;5048250;28;20521;-79
2022/07/29 10:23:03;;;;;;;5.03;4.63;;;;;;;32.10;43.80;65339.53;5047131;28;20267;-78
2022/07/29 10:25:31;;;;;;;5.10;4.60;;;;;;;32.15;41.42;65339.53;5046997;28;20490;-79
2022/07/29 10:27:59;;;;;;;4.72;4.43;;;;;;;32.16;42.59;65337.94;5047670;28;20276;-78
2022/07/29 10:30:27;;;;;;;4.88;4.47;;;;;;;31.82;41.69;65300.03;5047564;28;20201;-79
2022/07/29 10:33:22;;;;;;;4.70;4.40;;;;;;;31.67;41.88;65289.50;5047329;28;20256;-78
2022/07/29 10:36:11;;;;;;;5.32;4.63;;;;;;;31.10;44.24;65227.38;5042456;28;20208;-78
2022/07/29 10:38:45;;;;;;;5.22;4.82;;;;;;;31.04;43.55;65218.47;5046958;28;20285;-79
2022/07/29 10:41:32;;;;;;;4.82;4.53;;;;;;;30.91;43.32;65207.41;5047104;28;20394;-79
2022/07/29 10:44:02;;;;;;;5.38;4.35;;;;;;;30.73;43.08;65185.81;5047957;28;20227;-79
2022/07/29 10:46:35;;;;;;;3.55;3.45;;;;;;;30.48;43.96;65162.16;5048958;28;20304;-79
2022/07/29 10:49:14;;;;;;;4.10;3.90;;;;;;;30.33;43.07;65146.38;5047741;28;20498;-79
2022/07/29 10:51:59;;;;;;;4.15;3.95;;;;;;;30.30;44.58;65143.25;5048450;28;20198;-79
2022/07/29 10:54:55;;;;;;;6.05;4.68;;;;;;;30.32;42.85;65147.97;5048687;28;20217;-79
2022/07/29 10:57:28;;;;;;;4.55;4.30;;;;;;;30.26;43.21;65139.56;5030043;28;20223;-78
2022/07/29 11:00:32;;;;;;;3.75;3.55;;;;;;;30.10;45.41;65125.34;5048008;28;20201;-80
2022/07/29 11:03:00;;;;;;;4.68;4.28;;;;;;;29.99;45.12;65110.63;5048589;28;20435;-78
2022/07/29 11:05:29;;;;;;;4.28;3.97;;;;;;;30.12;45.27;65124.81;5047106;28;20197;-78
2022/07/29 11:08:23;;;;;;;5.78;4.50;;;;;;;30.15;46.77;65127.47;5047051;28;20239;-78
2022/07/29 11:10:51;;;;;;;5.10;4.60;;;;;;;30.28;44.69;65141.66;5046886;28;20201;-79
2022/07/29 11:13:51;;;;;;;3.85;3.75;;;;;;;30.31;42.44;65146.91;5046377;28;20221;-78
2022/07/29 11:16:21;;;;;;;4.80;4.45;;;;;;;30.46;42.92;65160.59;5042787;28;20212;-78
2022/07/29 11:19:22;;;;;;;9.23;4.50;;;;;;;30.42;43.12;65159.03;5046878;28;20220;-80
2022/07/29 11:21:50;;;;;;;5.00;4.55;;;;;;;30.59;43.90;65176.38;5047799;28;20240;-78
2022/07/29 11:24:20;;;;;;;4.60;4.20;;;;;;;30.80;42.33;65192.69;5047696;28;20219;-80
2022/07/29 11:27:07;;;;;;;5.25;4.85;;;;;;;31.21;41.39;65238.44;5048061;28;20225;-79
2022/07/29 11:29:39;;;;;;;4.90;4.60;;;;;;;31.18;40.59;65243.19;5049013;28;20190;-78
2022/07/29 11:32:10;;;;;;;5.38;5.07;;;;;;;31.28;38.77;65248.44;5049388;28;20222;-81
2022/07/29 11:34:40;;;;;;;4.60;4.25;;;;;;;31.35;41.08;65253.72;5047195;28;20203;-79
2022/07/29 11:37:24;;;;;;;4.72;4.47;;;;;;;31.48;40.09;65272.13;5047214;28;20217;-79
2022/07/29 11:40:12;;;;;;;4.60;4.22;;;;;;;31.69;38.93;65286.31;5047731;28;20205;-78
2022/07/29 11:42:45;;;;;;;6.70;4.30;;;;;;;31.69;38.90;65294.75;5046902;28;20647;-78
2022/07/29 11:45:15;;;;;;;4.22;3.92;;;;;;;31.06;38.90;65223.19;5046496;28;20223;-78